sensor_id;sensor_type;location;lat;lon;timestamp;P1;durP1;ratioP1;P2;durP2;ratioP2
23588;SDS011;11972;48.078;11.876;2024-01-27T00:01:22;5.80;;;1.10;;
23588;SDS011;11972;48.078;11.876;2024-01-27T00:05:22;2.80;;;0.80;;
23588;SDS011;11972;48.078;11.876;2024-01-27T00:09:23;3.17;;;1.00;;
23588;SDS011;11972;48.078;11.876;2024-01-27T00:13:23;4.32;;;0.80;;
23588;SDS011;11972;48.078;11.876;2024-01-27T00:17:23;2.30;;;0.90;;
23588;SDS011;11972;48.078;11.876;2024-01-27T00:21:25;4.40;;;1.30;;
23588;SDS011;11972;48.078;11.876;2024-01-27T00:25:25;3.25;;;1.00;;
23588;SDS011;11972;48.078;11.876;2024-01-27T00:29:26;4.88;;;1.10;;
23588;SDS011;11972;48.078;11.876;2024-01-27T00:33:26;4.40;;;1.00;;
23588;SDS011;11972;48.078;11.876;2024-01-27T00:37:26;2.17;;;0.82;;
23588;SDS011;11972;48.078;11.876;2024-01-27T00:41:27;4.72;;;1.00;;
23588;SDS011;11972;48.078;11.876;2024-01-27T00:45:27;2.47;;;0.95;;
23588;SDS011;11972;48.078;11.876;2024-01-27T00:49:28;3.38;;;2.40;;
23588;SDS011;11972;48.078;11.876;2024-01-27T00:53:29;4.07;;;2.45;;
23588;SDS011;11972;48.078;11.876;2024-01-27T00:57:29;2.95;;;1.40;;
23588;SDS011;11972;48.078;11.876;2024-01-27T01:01:29;2.83;;;1.13;;
23588;SDS011;11972;48.078;11.876;2024-01-27T01:05:29;5.13;;;1.27;;
23588;SDS011;11972;48.078;11.876;2024-01-27T01:09:30;4.93;;;1.85;;
23588;SDS011;11972;48.078;11.876;2024-01-27T01:13:30;7.10;;;3.40;;
23588;SDS011;11972;48.078;11.876;2024-01-27T01:17:30;5.95;;;2.67;;
23588;SDS011;11972;48.078;11.876;2024-01-27T01:21:31;1.40;;;1.30;;
23588;SDS011;11972;48.078;11.876;2024-01-27T01:25:31;3.03;;;1.48;;
23588;SDS011;11972;48.078;11.876;2024-01-27T01:29:32;2.47;;;1.38;;
23588;SDS011;11972;48.078;11.876;2024-01-27T01:33:32;2.85;;;1.40;;
23588;SDS011;11972;48.078;11.876;2024-01-27T01:37:32;3.15;;;1.42;;
23588;SDS011;11972;48.078;11.876;2024-01-27T01:41:33;3.22;;;1.42;;
23588;SDS011;11972;48.078;11.876;2024-01-27T01:45:33;3.55;;;1.25;;
23588;SDS011;11972;48.078;11.876;2024-01-27T01:49:33;3.38;;;1.60;;
23588;SDS011;11972;48.078;11.876;2024-01-27T01:53:35;5.22;;;1.77;;
23588;SDS011;11972;48.078;11.876;2024-01-27T01:57:36;8.25;;;3.47;;
23588;SDS011;11972;48.078;11.876;2024-01-27T02:01:36;4.13;;;1.60;;
23588;SDS011;11972;48.078;11.876;2024-01-27T02:05:37;2.83;;;1.55;;
23588;SDS011;11972;48.078;11.876;2024-01-27T02:09:37;3.22;;;1.50;;
23588;SDS011;11972;48.078;11.876;2024-01-27T02:13:37;1.83;;;1.05;;
23588;SDS011;11972;48.078;11.876;2024-01-27T02:17:38;2.25;;;1.20;;
23588;SDS011;11972;48.078;11.876;2024-01-27T02:21:39;6.65;;;1.10;;
23588;SDS011;11972;48.078;11.876;2024-01-27T02:25:40;2.95;;;1.33;;
23588;SDS011;11972;48.078;11.876;2024-01-27T02:29:40;4.15;;;1.30;;
23588;SDS011;11972;48.078;11.876;2024-01-27T02:33:40;5.22;;;1.42;;
23588;SDS011;11972;48.078;11.876;2024-01-27T02:37:41;2.55;;;1.20;;
23588;SDS011;11972;48.078;11.876;2024-01-27T02:41:41;3.97;;;1.10;;
23588;SDS011;11972;48.078;11.876;2024-01-27T02:45:42;2.15;;;0.98;;
23588;SDS011;11972;48.078;11.876;2024-01-27T02:49:42;2.95;;;1.40;;
23588;SDS011;11972;48.078;11.876;2024-01-27T02:53:42;2.08;;;1.40;;
23588;SDS011;11972;48.078;11.876;2024-01-27T02:57:43;3.35;;;1.27;;
23588;SDS011;11972;48.078;11.876;2024-01-27T03:01:43;3.28;;;1.40;;
23588;SDS011;11972;48.078;11.876;2024-01-27T03:05:43;3.83;;;1.33;;
23588;SDS011;11972;48.078;11.876;2024-01-27T03:09:43;2.33;;;1.17;;
23588;SDS011;11972;48.078;11.876;2024-01-27T03:13:44;3.40;;;1.05;;
23588;SDS011;11972;48.078;11.876;2024-01-27T03:17:45;2.42;;;1.10;;
23588;SDS011;11972;48.078;11.876;2024-01-27T03:21:45;3.65;;;1.20;;
23588;SDS011;11972;48.078;11.876;2024-01-27T03:25:46;3.75;;;1.38;;
23588;SDS011;11972;48.078;11.876;2024-01-27T03:29:46;2.90;;;1.20;;
23588;SDS011;11972;48.078;11.876;2024-01-27T03:33:46;5.25;;;2.00;;
23588;SDS011;11972;48.078;11.876;2024-01-27T03:37:47;5.53;;;1.60;;
23588;SDS011;11972;48.078;11.876;2024-01-27T03:41:47;5.60;;;1.13;;
23588;SDS011;11972;48.078;11.876;2024-01-27T03:45:48;7.07;;;1.60;;
23588;SDS011;11972;48.078;11.876;2024-01-27T03:49:48;2.55;;;1.10;;
23588;SDS011;11972;48.078;11.876;2024-01-27T03:53:48;7.85;;;1.75;;
23588;SDS011;11972;48.078;11.876;2024-01-27T03:57:49;6.50;;;1.55;;
23588;SDS011;11972;48.078;11.876;2024-01-27T04:01:49;4.90;;;1.48;;
23588;SDS011;11972;48.078;11.876;2024-01-27T04:05:49;4.00;;;1.35;;
23588;SDS011;11972;48.078;11.876;2024-01-27T04:09:49;3.20;;;1.50;;
23588;SDS011;11972;48.078;11.876;2024-01-27T04:13:50;3.05;;;1.50;;
23588;SDS011;11972;48.078;11.876;2024-01-27T04:17:50;3.10;;;1.27;;
23588;SDS011;11972;48.078;11.876;2024-01-27T04:21:51;6.30;;;1.40;;
23588;SDS011;11972;48.078;11.876;2024-01-27T04:25:51;6.30;;;1.30;;
23588;SDS011;11972;48.078;11.876;2024-01-27T04:29:51;3.60;;;1.80;;
23588;SDS011;11972;48.078;11.876;2024-01-27T04:33:52;5.20;;;1.40;;
23588;SDS011;11972;48.078;11.876;2024-01-27T04:37:52;6.72;;;1.60;;
23588;SDS011;11972;48.078;11.876;2024-01-27T04:41:52;8.05;;;2.03;;
23588;SDS011;11972;48.078;11.876;2024-01-27T04:45:53;2.92;;;1.35;;
23588;SDS011;11972;48.078;11.876;2024-01-27T04:49:53;3.92;;;1.40;;
23588;SDS011;11972;48.078;11.876;2024-01-27T04:53:53;5.80;;;1.40;;
23588;SDS011;11972;48.078;11.876;2024-01-27T04:57:54;4.55;;;1.60;;
23588;SDS011;11972;48.078;11.876;2024-01-27T05:01:54;6.03;;;1.75;;
23588;SDS011;11972;48.078;11.876;2024-01-27T05:05:54;3.95;;;2.03;;
23588;SDS011;11972;48.078;11.876;2024-01-27T05:09:55;3.70;;;1.92;;
23588;SDS011;11972;48.078;11.876;2024-01-27T05:13:55;3.88;;;1.60;;
23588;SDS011;11972;48.078;11.876;2024-01-27T05:17:55;3.70;;;1.60;;
23588;SDS011;11972;48.078;11.876;2024-01-27T05:21:56;4.90;;;1.70;;
23588;SDS011;11972;48.078;11.876;2024-01-27T05:25:56;6.38;;;3.22;;
23588;SDS011;11972;48.078;11.876;2024-01-27T05:29:56;73.13;;;38.65;;
23588;SDS011;11972;48.078;11.876;2024-01-27T05:33:57;6.63;;;3.47;;
23588;SDS011;11972;48.078;11.876;2024-01-27T05:37:57;9.93;;;6.25;;
23588;SDS011;11972;48.078;11.876;2024-01-27T05:41:57;8.10;;;3.80;;
23588;SDS011;11972;48.078;11.876;2024-01-27T05:45:58;11.07;;;6.25;;
23588;SDS011;11972;48.078;11.876;2024-01-27T05:49:59;11.75;;;6.85;;
23588;SDS011;11972;48.078;11.876;2024-01-27T05:53:59;8.15;;;5.07;;
23588;SDS011;11972;48.078;11.876;2024-01-27T05:58:00;6.47;;;4.00;;
23588;SDS011;11972;48.078;11.876;2024-01-27T06:02:00;5.03;;;3.05;;
23588;SDS011;11972;48.078;11.876;2024-01-27T06:06:01;9.20;;;2.88;;
23588;SDS011;11972;48.078;11.876;2024-01-27T06:10:02;6.88;;;3.22;;
23588;SDS011;11972;48.078;11.876;2024-01-27T06:14:02;11.20;;;4.90;;
23588;SDS011;11972;48.078;11.876;2024-01-27T06:18:02;10.75;;;5.80;;
23588;SDS011;11972;48.078;11.876;2024-01-27T06:22:03;7.32;;;4.70;;
23588;SDS011;11972;48.078;11.876;2024-01-27T06:26:04;4.68;;;2.97;;
23588;SDS011;11972;48.078;11.876;2024-01-27T06:30:06;5.97;;;2.72;;
23588;SDS011;11972;48.078;11.876;2024-01-27T06:34:07;6.13;;;2.60;;
23588;SDS011;11972;48.078;11.876;2024-01-27T06:38:08;5.10;;;2.42;;
23588;SDS011;11972;48.078;11.876;2024-01-27T06:42:08;7.72;;;2.47;;
23588;SDS011;11972;48.078;11.876;2024-01-27T06:46:08;5.13;;;2.00;;
23588;SDS011;11972;48.078;11.876;2024-01-27T06:50:09;7.35;;;2.38;;
23588;SDS011;11972;48.078;11.876;2024-01-27T06:54:09;3.97;;;2.63;;
23588;SDS011;11972;48.078;11.876;2024-01-27T06:58:10;5.95;;;3.10;;
23588;SDS011;11972;48.078;11.876;2024-01-27T07:02:10;7.80;;;3.60;;
23588;SDS011;11972;48.078;11.876;2024-01-27T07:06:14;19.20;;;8.85;;
23588;SDS011;11972;48.078;11.876;2024-01-27T07:10:14;5.50;;;2.67;;
23588;SDS011;11972;48.078;11.876;2024-01-27T07:14:14;4.25;;;2.85;;
23588;SDS011;11972;48.078;11.876;2024-01-27T07:18:15;5.60;;;2.10;;
23588;SDS011;11972;48.078;11.876;2024-01-27T07:22:15;4.38;;;2.42;;
23588;SDS011;11972;48.078;11.876;2024-01-27T07:26:15;7.70;;;3.10;;
23588;SDS011;11972;48.078;11.876;2024-01-27T07:30:16;3.67;;;2.03;;
23588;SDS011;11972;48.078;11.876;2024-01-27T07:34:16;4.28;;;1.90;;
23588;SDS011;11972;48.078;11.876;2024-01-27T07:38:16;7.13;;;2.30;;
23588;SDS011;11972;48.078;11.876;2024-01-27T07:42:17;8.15;;;2.33;;
23588;SDS011;11972;48.078;11.876;2024-01-27T07:46:17;5.43;;;2.13;;
23588;SDS011;11972;48.078;11.876;2024-01-27T07:50:21;4.95;;;1.98;;
23588;SDS011;11972;48.078;11.876;2024-01-27T07:54:23;7.60;;;2.05;;
23588;SDS011;11972;48.078;11.876;2024-01-27T07:58:23;6.10;;;2.20;;
23588;SDS011;11972;48.078;11.876;2024-01-27T08:02:23;9.65;;;2.50;;
23588;SDS011;11972;48.078;11.876;2024-01-27T08:06:29;4.32;;;2.60;;
23588;SDS011;11972;48.078;11.876;2024-01-27T08:10:30;4.78;;;2.58;;
23588;SDS011;11972;48.078;11.876;2024-01-27T08:14:30;6.47;;;2.40;;
23588;SDS011;11972;48.078;11.876;2024-01-27T08:18:31;4.18;;;1.83;;
23588;SDS011;11972;48.078;11.876;2024-01-27T08:22:31;6.90;;;2.60;;
23588;SDS011;11972;48.078;11.876;2024-01-27T08:26:31;6.70;;;2.53;;
23588;SDS011;11972;48.078;11.876;2024-01-27T08:30:32;5.60;;;2.38;;
23588;SDS011;11972;48.078;11.876;2024-01-27T08:34:32;6.93;;;2.50;;
23588;SDS011;11972;48.078;11.876;2024-01-27T08:38:33;6.30;;;2.50;;
23588;SDS011;11972;48.078;11.876;2024-01-27T08:42:33;5.00;;;2.22;;
23588;SDS011;11972;48.078;11.876;2024-01-27T08:46:33;6.40;;;2.67;;
23588;SDS011;11972;48.078;11.876;2024-01-27T08:50:34;10.88;;;2.28;;
23588;SDS011;11972;48.078;11.876;2024-01-27T08:54:34;6.80;;;2.38;;
23588;SDS011;11972;48.078;11.876;2024-01-27T08:58:34;8.98;;;2.83;;
23588;SDS011;11972;48.078;11.876;2024-01-27T09:02:35;5.32;;;2.83;;
23588;SDS011;11972;48.078;11.876;2024-01-27T09:06:35;6.97;;;2.80;;
23588;SDS011;11972;48.078;11.876;2024-01-27T09:10:36;6.22;;;2.53;;
23588;SDS011;11972;48.078;11.876;2024-01-27T09:14:36;6.00;;;2.65;;
23588;SDS011;11972;48.078;11.876;2024-01-27T09:18:36;6.95;;;3.05;;
23588;SDS011;11972;48.078;11.876;2024-01-27T09:22:36;7.80;;;2.80;;
23588;SDS011;11972;48.078;11.876;2024-01-27T09:26:37;6.60;;;2.88;;
23588;SDS011;11972;48.078;11.876;2024-01-27T09:30:37;8.98;;;3.00;;
23588;SDS011;11972;48.078;11.876;2024-01-27T09:34:38;5.80;;;2.30;;
23588;SDS011;11972;48.078;11.876;2024-01-27T09:38:38;5.90;;;2.92;;
23588;SDS011;11972;48.078;11.876;2024-01-27T09:42:38;6.20;;;2.70;;
23588;SDS011;11972;48.078;11.876;2024-01-27T09:46:42;4.82;;;2.67;;
23588;SDS011;11972;48.078;11.876;2024-01-27T09:50:43;6.78;;;2.55;;
23588;SDS011;11972;48.078;11.876;2024-01-27T09:54:45;5.50;;;2.80;;
23588;SDS011;11972;48.078;11.876;2024-01-27T09:58:46;6.30;;;2.42;;
23588;SDS011;11972;48.078;11.876;2024-01-27T10:02:49;7.65;;;2.72;;
23588;SDS011;11972;48.078;11.876;2024-01-27T10:06:50;8.20;;;3.05;;
23588;SDS011;11972;48.078;11.876;2024-01-27T10:10:54;7.20;;;2.53;;
23588;SDS011;11972;48.078;11.876;2024-01-27T10:14:58;6.10;;;2.85;;
23588;SDS011;11972;48.078;11.876;2024-01-27T10:18:59;8.07;;;2.85;;
23588;SDS011;11972;48.078;11.876;2024-01-27T10:23:10;4.93;;;2.40;;
23588;SDS011;11972;48.078;11.876;2024-01-27T10:27:11;7.55;;;2.60;;
23588;SDS011;11972;48.078;11.876;2024-01-27T10:31:12;8.35;;;3.10;;
23588;SDS011;11972;48.078;11.876;2024-01-27T10:35:12;4.88;;;2.60;;
23588;SDS011;11972;48.078;11.876;2024-01-27T10:39:16;5.80;;;2.72;;
23588;SDS011;11972;48.078;11.876;2024-01-27T10:43:17;6.70;;;2.95;;
23588;SDS011;11972;48.078;11.876;2024-01-27T10:47:18;5.63;;;2.55;;
23588;SDS011;11972;48.078;11.876;2024-01-27T10:51:29;6.32;;;2.90;;
23588;SDS011;11972;48.078;11.876;2024-01-27T10:55:33;6.80;;;3.25;;
23588;SDS011;11972;48.078;11.876;2024-01-27T10:59:35;4.80;;;2.90;;
23588;SDS011;11972;48.078;11.876;2024-01-27T11:03:38;6.50;;;3.17;;
23588;SDS011;11972;48.078;11.876;2024-01-27T11:07:42;3.78;;;2.63;;
23588;SDS011;11972;48.078;11.876;2024-01-27T11:11:42;5.97;;;2.97;;
23588;SDS011;11972;48.078;11.876;2024-01-27T11:15:51;8.02;;;2.90;;
23588;SDS011;11972;48.078;11.876;2024-01-27T11:19:52;7.40;;;3.28;;
23588;SDS011;11972;48.078;11.876;2024-01-27T11:23:56;4.72;;;2.50;;
23588;SDS011;11972;48.078;11.876;2024-01-27T11:27:56;4.28;;;2.40;;
23588;SDS011;11972;48.078;11.876;2024-01-27T11:31:57;4.15;;;1.95;;
23588;SDS011;11972;48.078;11.876;2024-01-27T11:36:04;5.22;;;2.25;;
23588;SDS011;11972;48.078;11.876;2024-01-27T11:40:05;5.85;;;2.40;;
23588;SDS011;11972;48.078;11.876;2024-01-27T11:44:07;6.53;;;2.83;;
23588;SDS011;11972;48.078;11.876;2024-01-27T11:48:13;4.38;;;2.40;;
23588;SDS011;11972;48.078;11.876;2024-01-27T11:52:14;5.32;;;2.50;;
23588;SDS011;11972;48.078;11.876;2024-01-27T11:56:14;4.70;;;2.03;;
23588;SDS011;11972;48.078;11.876;2024-01-27T12:00:15;6.63;;;2.20;;
23588;SDS011;11972;48.078;11.876;2024-01-27T12:04:16;4.85;;;2.55;;
23588;SDS011;11972;48.078;11.876;2024-01-27T12:08:17;5.30;;;2.38;;
23588;SDS011;11972;48.078;11.876;2024-01-27T12:12:17;5.78;;;1.80;;
23588;SDS011;11972;48.078;11.876;2024-01-27T12:16:18;5.30;;;2.10;;
23588;SDS011;11972;48.078;11.876;2024-01-27T12:20:18;3.83;;;2.03;;
23588;SDS011;11972;48.078;11.876;2024-01-27T12:24:19;3.38;;;1.90;;
23588;SDS011;11972;48.078;11.876;2024-01-27T12:28:19;4.63;;;2.15;;
23588;SDS011;11972;48.078;11.876;2024-01-27T12:32:20;3.67;;;1.98;;
23588;SDS011;11972;48.078;11.876;2024-01-27T12:36:21;4.50;;;2.03;;
23588;SDS011;11972;48.078;11.876;2024-01-27T12:40:22;4.05;;;1.60;;
23588;SDS011;11972;48.078;11.876;2024-01-27T12:44:23;5.60;;;2.00;;
23588;SDS011;11972;48.078;11.876;2024-01-27T12:48:23;4.60;;;1.80;;
23588;SDS011;11972;48.078;11.876;2024-01-27T12:52:24;3.17;;;1.20;;
23588;SDS011;11972;48.078;11.876;2024-01-27T12:56:24;4.13;;;1.65;;
23588;SDS011;11972;48.078;11.876;2024-01-27T13:00:25;4.50;;;1.58;;
23588;SDS011;11972;48.078;11.876;2024-01-27T13:04:25;6.00;;;1.60;;
23588;SDS011;11972;48.078;11.876;2024-01-27T13:08:25;2.55;;;1.38;;
23588;SDS011;11972;48.078;11.876;2024-01-27T13:12:26;2.67;;;1.13;;
23588;SDS011;11972;48.078;11.876;2024-01-27T13:16:26;2.83;;;1.60;;
23588;SDS011;11972;48.078;11.876;2024-01-27T13:20:33;2.08;;;1.17;;
23588;SDS011;11972;48.078;11.876;2024-01-27T13:24:34;3.53;;;1.30;;
23588;SDS011;11972;48.078;11.876;2024-01-27T13:28:36;3.13;;;1.20;;
23588;SDS011;11972;48.078;11.876;2024-01-27T13:32:36;4.50;;;1.73;;
23588;SDS011;11972;48.078;11.876;2024-01-27T13:36:36;2.70;;;1.45;;
23588;SDS011;11972;48.078;11.876;2024-01-27T13:40:37;5.22;;;2.58;;
23588;SDS011;11972;48.078;11.876;2024-01-27T13:44:37;2.20;;;1.92;;
23588;SDS011;11972;48.078;11.876;2024-01-27T13:48:39;4.57;;;2.67;;
23588;SDS011;11972;48.078;11.876;2024-01-27T13:52:39;3.55;;;1.98;;
23588;SDS011;11972;48.078;11.876;2024-01-27T13:56:43;4.07;;;1.95;;
23588;SDS011;11972;48.078;11.876;2024-01-27T14:00:43;5.40;;;1.88;;
23588;SDS011;11972;48.078;11.876;2024-01-27T14:04:43;6.07;;;1.80;;
23588;SDS011;11972;48.078;11.876;2024-01-27T14:08:44;6.22;;;1.88;;
23588;SDS011;11972;48.078;11.876;2024-01-27T14:12:44;4.07;;;1.48;;
23588;SDS011;11972;48.078;11.876;2024-01-27T14:16:46;5.40;;;1.70;;
23588;SDS011;11972;48.078;11.876;2024-01-27T14:20:47;3.50;;;1.70;;
23588;SDS011;11972;48.078;11.876;2024-01-27T14:24:48;4.07;;;1.60;;
23588;SDS011;11972;48.078;11.876;2024-01-27T14:28:48;5.82;;;1.83;;
23588;SDS011;11972;48.078;11.876;2024-01-27T14:32:49;4.55;;;1.65;;
23588;SDS011;11972;48.078;11.876;2024-01-27T14:36:49;3.63;;;1.50;;
23588;SDS011;11972;48.078;11.876;2024-01-27T14:40:50;5.22;;;3.08;;
23588;SDS011;11972;48.078;11.876;2024-01-27T14:44:50;5.35;;;2.25;;
23588;SDS011;11972;48.078;11.876;2024-01-27T14:48:53;4.18;;;1.40;;
23588;SDS011;11972;48.078;11.876;2024-01-27T14:52:54;8.02;;;4.65;;
23588;SDS011;11972;48.078;11.876;2024-01-27T14:56:54;3.03;;;1.25;;
23588;SDS011;11972;48.078;11.876;2024-01-27T15:00:55;4.68;;;2.47;;
23588;SDS011;11972;48.078;11.876;2024-01-27T15:04:56;5.13;;;2.03;;
23588;SDS011;11972;48.078;11.876;2024-01-27T15:08:56;4.78;;;1.42;;
23588;SDS011;11972;48.078;11.876;2024-01-27T15:12:57;4.68;;;2.15;;
23588;SDS011;11972;48.078;11.876;2024-01-27T15:16:58;3.00;;;1.30;;
23588;SDS011;11972;48.078;11.876;2024-01-27T15:20:58;4.50;;;1.70;;
23588;SDS011;11972;48.078;11.876;2024-01-27T15:24:59;6.43;;;1.30;;
23588;SDS011;11972;48.078;11.876;2024-01-27T15:28:59;5.60;;;1.83;;
23588;SDS011;11972;48.078;11.876;2024-01-27T15:32:59;3.97;;;1.67;;
23588;SDS011;11972;48.078;11.876;2024-01-27T15:37:00;5.03;;;1.55;;
23588;SDS011;11972;48.078;11.876;2024-01-27T15:41:00;4.05;;;1.00;;
23588;SDS011;11972;48.078;11.876;2024-01-27T15:45:07;3.75;;;1.27;;
23588;SDS011;11972;48.078;11.876;2024-01-27T15:49:08;2.42;;;1.10;;
23588;SDS011;11972;48.078;11.876;2024-01-27T15:53:08;9.63;;;2.35;;
23588;SDS011;11972;48.078;11.876;2024-01-27T15:57:09;7.63;;;2.60;;
23588;SDS011;11972;48.078;11.876;2024-01-27T16:01:09;3.05;;;1.42;;
23588;SDS011;11972;48.078;11.876;2024-01-27T16:05:09;2.83;;;0.90;;
23588;SDS011;11972;48.078;11.876;2024-01-27T16:09:10;2.97;;;1.48;;
23588;SDS011;11972;48.078;11.876;2024-01-27T16:13:10;4.85;;;1.52;;
23588;SDS011;11972;48.078;11.876;2024-01-27T16:17:11;5.28;;;1.60;;
23588;SDS011;11972;48.078;11.876;2024-01-27T16:21:12;3.38;;;1.80;;
23588;SDS011;11972;48.078;11.876;2024-01-27T16:25:12;3.00;;;1.38;;
23588;SDS011;11972;48.078;11.876;2024-01-27T16:29:13;9.07;;;2.85;;
23588;SDS011;11972;48.078;11.876;2024-01-27T16:33:14;6.20;;;3.10;;
23588;SDS011;11972;48.078;11.876;2024-01-27T16:37:14;8.85;;;5.53;;
23588;SDS011;11972;48.078;11.876;2024-01-27T16:41:15;9.75;;;5.80;;
23588;SDS011;11972;48.078;11.876;2024-01-27T16:45:16;10.20;;;5.90;;
23588;SDS011;11972;48.078;11.876;2024-01-27T16:49:16;5.63;;;2.72;;
23588;SDS011;11972;48.078;11.876;2024-01-27T16:53:17;12.98;;;9.27;;
23588;SDS011;11972;48.078;11.876;2024-01-27T16:57:17;5.70;;;2.65;;
23588;SDS011;11972;48.078;11.876;2024-01-27T17:01:18;6.30;;;3.60;;
23588;SDS011;11972;48.078;11.876;2024-01-27T17:05:18;5.22;;;3.03;;
23588;SDS011;11972;48.078;11.876;2024-01-27T17:09:19;7.72;;;5.97;;
23588;SDS011;11972;48.078;11.876;2024-01-27T17:13:19;49.97;;;28.98;;
23588;SDS011;11972;48.078;11.876;2024-01-27T17:17:19;27.23;;;15.40;;
23588;SDS011;11972;48.078;11.876;2024-01-27T17:21:20;23.75;;;13.20;;
23588;SDS011;11972;48.078;11.876;2024-01-27T17:25:21;9.65;;;5.55;;
23588;SDS011;11972;48.078;11.876;2024-01-27T17:29:21;8.70;;;6.10;;
23588;SDS011;11972;48.078;11.876;2024-01-27T17:33:22;9.25;;;5.57;;
23588;SDS011;11972;48.078;11.876;2024-01-27T17:37:22;7.32;;;4.00;;
23588;SDS011;11972;48.078;11.876;2024-01-27T17:41:22;9.75;;;5.80;;
23588;SDS011;11972;48.078;11.876;2024-01-27T17:45:23;10.02;;;6.10;;
23588;SDS011;11972;48.078;11.876;2024-01-27T17:49:23;11.00;;;7.43;;
23588;SDS011;11972;48.078;11.876;2024-01-27T17:53:23;19.40;;;10.70;;
23588;SDS011;11972;48.078;11.876;2024-01-27T17:57:24;15.98;;;10.18;;
23588;SDS011;11972;48.078;11.876;2024-01-27T18:01:24;22.25;;;14.23;;
23588;SDS011;11972;48.078;11.876;2024-01-27T18:05:24;20.33;;;12.35;;
23588;SDS011;11972;48.078;11.876;2024-01-27T18:09:26;24.50;;;14.70;;
23588;SDS011;11972;48.078;11.876;2024-01-27T18:13:27;19.23;;;12.52;;
23588;SDS011;11972;48.078;11.876;2024-01-27T18:17:27;20.58;;;11.48;;
23588;SDS011;11972;48.078;11.876;2024-01-27T18:21:27;14.85;;;8.77;;
23588;SDS011;11972;48.078;11.876;2024-01-27T18:25:28;16.85;;;8.55;;
23588;SDS011;11972;48.078;11.876;2024-01-27T18:29:28;14.93;;;9.25;;
23588;SDS011;11972;48.078;11.876;2024-01-27T18:33:29;15.63;;;10.15;;
23588;SDS011;11972;48.078;11.876;2024-01-27T18:37:29;19.65;;;12.57;;
23588;SDS011;11972;48.078;11.876;2024-01-27T18:41:30;18.15;;;11.55;;
23588;SDS011;11972;48.078;11.876;2024-01-27T18:45:30;33.05;;;19.20;;
23588;SDS011;11972;48.078;11.876;2024-01-27T18:49:31;33.47;;;18.92;;
23588;SDS011;11972;48.078;11.876;2024-01-27T18:53:32;34.75;;;20.42;;
23588;SDS011;11972;48.078;11.876;2024-01-27T18:57:36;29.00;;;18.40;;
23588;SDS011;11972;48.078;11.876;2024-01-27T19:01:38;29.33;;;16.88;;
23588;SDS011;11972;48.078;11.876;2024-01-27T19:05:38;16.02;;;10.80;;
23588;SDS011;11972;48.078;11.876;2024-01-27T19:09:39;14.57;;;9.15;;
23588;SDS011;11972;48.078;11.876;2024-01-27T19:13:39;13.00;;;8.63;;
23588;SDS011;11972;48.078;11.876;2024-01-27T19:17:39;19.35;;;10.70;;
23588;SDS011;11972;48.078;11.876;2024-01-27T19:21:40;16.88;;;10.23;;
23588;SDS011;11972;48.078;11.876;2024-01-27T19:25:41;15.70;;;9.90;;
23588;SDS011;11972;48.078;11.876;2024-01-27T19:29:41;15.98;;;10.93;;
23588;SDS011;11972;48.078;11.876;2024-01-27T19:33:42;18.15;;;10.82;;
23588;SDS011;11972;48.078;11.876;2024-01-27T19:37:42;21.30;;;12.45;;
23588;SDS011;11972;48.078;11.876;2024-01-27T19:41:43;15.68;;;9.15;;
23588;SDS011;11972;48.078;11.876;2024-01-27T19:45:43;13.13;;;8.52;;
23588;SDS011;11972;48.078;11.876;2024-01-27T19:49:43;10.77;;;7.93;;
23588;SDS011;11972;48.078;11.876;2024-01-27T19:53:44;8.73;;;7.13;;
23588;SDS011;11972;48.078;11.876;2024-01-27T19:57:44;12.57;;;7.43;;
23588;SDS011;11972;48.078;11.876;2024-01-27T20:01:45;13.38;;;8.57;;
23588;SDS011;11972;48.078;11.876;2024-01-27T20:05:45;11.75;;;6.55;;
23588;SDS011;11972;48.078;11.876;2024-01-27T20:09:45;15.02;;;7.65;;
23588;SDS011;11972;48.078;11.876;2024-01-27T20:13:46;11.60;;;7.72;;
23588;SDS011;11972;48.078;11.876;2024-01-27T20:17:46;11.75;;;7.53;;
23588;SDS011;11972;48.078;11.876;2024-01-27T20:21:47;9.80;;;6.70;;
23588;SDS011;11972;48.078;11.876;2024-01-27T20:25:47;11.98;;;7.00;;
23588;SDS011;11972;48.078;11.876;2024-01-27T20:29:48;10.23;;;6.50;;
23588;SDS011;11972;48.078;11.876;2024-01-27T20:33:49;14.60;;;8.25;;
23588;SDS011;11972;48.078;11.876;2024-01-27T20:37:49;13.07;;;7.57;;
23588;SDS011;11972;48.078;11.876;2024-01-27T20:41:50;12.32;;;6.93;;
23588;SDS011;11972;48.078;11.876;2024-01-27T20:45:50;12.43;;;7.90;;
23588;SDS011;11972;48.078;11.876;2024-01-27T20:49:50;16.80;;;8.43;;
23588;SDS011;11972;48.078;11.876;2024-01-27T20:53:51;16.40;;;10.00;;
23588;SDS011;11972;48.078;11.876;2024-01-27T20:57:51;14.60;;;8.60;;
23588;SDS011;11972;48.078;11.876;2024-01-27T21:01:51;11.48;;;7.38;;
23588;SDS011;11972;48.078;11.876;2024-01-27T21:05:52;10.98;;;6.43;;
23588;SDS011;11972;48.078;11.876;2024-01-27T21:09:53;8.60;;;6.40;;
23588;SDS011;11972;48.078;11.876;2024-01-27T21:13:53;9.82;;;6.40;;
23588;SDS011;11972;48.078;11.876;2024-01-27T21:17:54;8.35;;;6.00;;
23588;SDS011;11972;48.078;11.876;2024-01-27T21:21:55;7.97;;;5.93;;
23588;SDS011;11972;48.078;11.876;2024-01-27T21:25:55;14.32;;;5.70;;
23588;SDS011;11972;48.078;11.876;2024-01-27T21:29:56;10.73;;;5.25;;
23588;SDS011;11972;48.078;11.876;2024-01-27T21:33:56;11.90;;;5.82;;
23588;SDS011;11972;48.078;11.876;2024-01-27T21:37:56;9.57;;;5.85;;
23588;SDS011;11972;48.078;11.876;2024-01-27T21:41:57;14.18;;;5.75;;
23588;SDS011;11972;48.078;11.876;2024-01-27T21:45:57;18.52;;;10.02;;
23588;SDS011;11972;48.078;11.876;2024-01-27T21:49:57;14.65;;;6.97;;
23588;SDS011;11972;48.078;11.876;2024-01-27T21:53:58;12.07;;;7.40;;
23588;SDS011;11972;48.078;11.876;2024-01-27T21:57:58;12.52;;;6.68;;
23588;SDS011;11972;48.078;11.876;2024-01-27T22:01:59;12.93;;;7.25;;
23588;SDS011;11972;48.078;11.876;2024-01-27T22:05:59;11.63;;;7.10;;
23588;SDS011;11972;48.078;11.876;2024-01-27T22:10:04;11.98;;;6.85;;
23588;SDS011;11972;48.078;11.876;2024-01-27T22:14:05;9.35;;;6.28;;
23588;SDS011;11972;48.078;11.876;2024-01-27T22:18:05;9.35;;;6.07;;
23588;SDS011;11972;48.078;11.876;2024-01-27T22:22:06;14.50;;;7.10;;
23588;SDS011;11972;48.078;11.876;2024-01-27T22:26:06;11.68;;;6.97;;
23588;SDS011;11972;48.078;11.876;2024-01-27T22:30:07;15.77;;;7.53;;
23588;SDS011;11972;48.078;11.876;2024-01-27T22:34:09;13.15;;;7.05;;
23588;SDS011;11972;48.078;11.876;2024-01-27T22:38:10;11.60;;;6.63;;
23588;SDS011;11972;48.078;11.876;2024-01-27T22:42:11;11.63;;;6.78;;
23588;SDS011;11972;48.078;11.876;2024-01-27T22:46:11;10.75;;;7.10;;
23588;SDS011;11972;48.078;11.876;2024-01-27T22:50:11;12.50;;;6.45;;
23588;SDS011;11972;48.078;11.876;2024-01-27T22:54:12;16.38;;;8.07;;
23588;SDS011;11972;48.078;11.876;2024-01-27T22:58:12;11.80;;;7.07;;
23588;SDS011;11972;48.078;11.876;2024-01-27T23:02:12;14.40;;;7.72;;
23588;SDS011;11972;48.078;11.876;2024-01-27T23:06:13;14.48;;;9.25;;
23588;SDS011;11972;48.078;11.876;2024-01-27T23:10:14;17.63;;;10.18;;
23588;SDS011;11972;48.078;11.876;2024-01-27T23:14:14;18.98;;;11.88;;
23588;SDS011;11972;48.078;11.876;2024-01-27T23:18:14;17.45;;;10.45;;
23588;SDS011;11972;48.078;11.876;2024-01-27T23:22:15;19.65;;;13.93;;
23588;SDS011;11972;48.078;11.876;2024-01-27T23:26:15;49.17;;;25.75;;
23588;SDS011;11972;48.078;11.876;2024-01-27T23:30:16;45.30;;;23.40;;
23588;SDS011;11972;48.078;11.876;2024-01-27T23:34:16;38.35;;;18.40;;
23588;SDS011;11972;48.078;11.876;2024-01-27T23:38:16;67.28;;;31.02;;
23588;SDS011;11972;48.078;11.876;2024-01-27T23:42:18;60.15;;;27.55;;